createdAt,value
2023-02-11T00:00:45.898Z,5.47
2023-02-11T00:03:12.967Z,5.15
2023-02-11T00:05:39.850Z,4.43
2023-02-11T00:08:06.672Z,4.68
2023-02-11T00:10:33.555Z,6.38
2023-02-11T00:13:00.386Z,4.88
2023-02-11T00:15:27.169Z,5.03
2023-02-11T00:17:54.081Z,4.63
2023-02-11T00:20:21.181Z,4.65
2023-02-11T00:22:48.054Z,5.40
2023-02-11T00:25:15.206Z,4.15
2023-02-11T00:27:42.071Z,4.38
2023-02-11T00:30:10.395Z,5.43
2023-02-11T00:32:37.544Z,5.00
2023-02-11T00:35:04.489Z,4.65
2023-02-11T00:37:31.345Z,5.28
2023-02-11T00:39:58.163Z,4.45
2023-02-11T00:42:24.966Z,5.03
2023-02-11T00:44:51.778Z,5.10
2023-02-11T00:47:18.571Z,4.07
2023-02-11T00:49:45.418Z,5.18
2023-02-11T00:52:12.286Z,4.43
2023-02-11T00:54:39.103Z,4.78
2023-02-11T00:57:05.901Z,4.32
2023-02-11T00:59:32.705Z,3.75
2023-02-11T01:01:59.498Z,4.25
2023-02-11T01:04:26.307Z,4.85
2023-02-11T01:06:53.329Z,3.53
2023-02-11T01:09:21.163Z,4.50
2023-02-11T01:11:48.138Z,3.58
2023-02-11T01:14:15.140Z,3.67
2023-02-11T01:16:42.053Z,3.42
2023-02-11T01:19:08.895Z,3.95
2023-02-11T01:21:35.695Z,3.33
2023-02-11T01:24:02.501Z,3.88
2023-02-11T01:26:29.358Z,3.17
2023-02-11T01:28:56.830Z,2.92
2023-02-11T01:31:23.744Z,4.07
2023-02-11T01:33:50.735Z,3.72
2023-02-11T01:36:17.582Z,3.58
2023-02-11T01:38:45.554Z,4.07
2023-02-11T01:41:14.794Z,3.55
2023-02-11T01:43:47.690Z,3.63
2023-02-11T01:46:35.378Z,3.17
2023-02-11T01:49:05.347Z,3.72
2023-02-11T01:51:50.716Z,4.03
2023-02-11T01:54:42.614Z,3.78
2023-02-11T01:57:25.254Z,2.88
2023-02-11T02:00:07.211Z,3.05
2023-02-11T02:02:40.849Z,2.90
2023-02-11T02:05:30.846Z,3.08
2023-02-11T02:08:17.550Z,3.72
2023-02-11T02:10:47.185Z,3.17
2023-02-11T02:13:14.781Z,2.95
2023-02-11T02:15:56.867Z,3.30
2023-02-11T02:18:51.411Z,4.03
2023-02-11T02:21:39.571Z,2.58
2023-02-11T02:24:15.306Z,3.10
2023-02-11T02:27:19.957Z,3.22
2023-02-11T02:30:08.749Z,2.88
2023-02-11T02:33:05.839Z,3.85
2023-02-11T02:35:46.653Z,2.88
2023-02-11T02:38:37.611Z,3.70
2023-02-11T02:41:10.928Z,3.78
2023-02-11T02:43:42.649Z,2.85
2023-02-11T02:46:17.466Z,3.45
2023-02-11T02:48:45.383Z,3.50
2023-02-11T02:51:33.814Z,4.25
2023-02-11T02:54:19.371Z,4.05
2023-02-11T02:57:02.452Z,2.80
2023-02-11T02:59:41.354Z,4.05
2023-02-11T03:02:08.115Z,3.35
2023-02-11T03:04:56.761Z,3.25
2023-02-11T03:07:32.477Z,5.70
2023-02-11T03:10:06.110Z,4.22
2023-02-11T03:12:35.126Z,3.72
2023-02-11T03:15:05.270Z,3.53
2023-02-11T03:17:34.706Z,3.83
2023-02-11T03:20:03.127Z,4.38
2023-02-11T03:22:38.727Z,4.70
2023-02-11T03:25:05.937Z,3.95
2023-02-11T03:27:47.213Z,4.13
2023-02-11T03:30:20.458Z,4.10
2023-02-11T03:32:53.751Z,5.20
2023-02-11T03:35:29.245Z,3.30
2023-02-11T03:38:00.442Z,4.82
2023-02-11T03:40:34.554Z,3.75
2023-02-11T03:43:13.026Z,5.07
2023-02-11T03:45:40.601Z,3.75
2023-02-11T03:48:16.029Z,4.00
2023-02-11T03:50:45.041Z,4.35
2023-02-11T03:53:13.057Z,4.43
2023-02-11T03:55:41.648Z,4.68
2023-02-11T03:58:09.062Z,4.22
2023-02-11T04:00:39.828Z,4.55
2023-02-11T04:03:08.740Z,3.97
2023-02-11T04:05:35.780Z,6.13
2023-02-11T04:08:02.905Z,3.95
2023-02-11T04:10:29.983Z,4.65
2023-02-11T04:12:56.929Z,4.70
2023-02-11T04:15:24.254Z,4.97
2023-02-11T04:17:51.345Z,4.28
2023-02-11T04:20:18.586Z,5.25
2023-02-11T04:22:45.373Z,4.43
2023-02-11T04:25:12.281Z,4.45
2023-02-11T04:27:39.085Z,4.93
2023-02-11T04:30:06.971Z,5.88
2023-02-11T04:32:33.786Z,4.53
2023-02-11T04:35:00.640Z,5.75
2023-02-11T04:37:27.600Z,4.80
2023-02-11T04:39:54.468Z,4.47
2023-02-11T04:42:21.321Z,5.03
2023-02-11T04:44:48.180Z,5.13
2023-02-11T04:47:15.459Z,5.90
2023-02-11T04:49:42.754Z,5.60
2023-02-11T04:52:09.604Z,6.93
2023-02-11T04:54:36.517Z,5.10
2023-02-11T04:57:03.419Z,5.22
2023-02-11T04:59:30.318Z,6.30
2023-02-11T05:01:57.178Z,6.20
2023-02-11T05:04:24.237Z,6.95
2023-02-11T05:06:51.137Z,6.05
2023-02-11T05:09:18.068Z,6.68
2023-02-11T05:11:44.857Z,6.00
2023-02-11T05:14:11.655Z,6.45
2023-02-11T05:16:38.600Z,6.50
2023-02-11T05:19:05.453Z,7.88
2023-02-11T05:21:32.432Z,7.45
2023-02-11T05:23:59.461Z,7.57
2023-02-11T05:26:26.801Z,8.35
2023-02-11T05:28:53.678Z,6.50
2023-02-11T05:31:20.627Z,8.27
2023-02-11T05:33:47.416Z,7.85
2023-02-11T05:36:14.498Z,7.07
2023-02-11T05:38:42.618Z,7.30
2023-02-11T05:41:10.473Z,7.40
2023-02-11T05:43:37.458Z,8.00
2023-02-11T05:46:05.521Z,7.90
2023-02-11T05:48:32.420Z,7.45
2023-02-11T05:50:59.217Z,7.63
2023-02-11T05:53:26.115Z,9.60
2023-02-11T05:55:53.190Z,9.00
2023-02-11T05:58:20.094Z,7.47
2023-02-11T06:00:46.931Z,8.85
2023-02-11T06:03:13.766Z,7.90
2023-02-11T06:05:42.131Z,6.97
2023-02-11T06:08:12.187Z,8.82
2023-02-11T06:10:39.287Z,8.82
2023-02-11T06:13:06.087Z,9.27
2023-02-11T06:15:32.886Z,9.27
2023-02-11T06:17:59.648Z,8.02
2023-02-11T06:20:26.414Z,8.30
2023-02-11T06:22:53.444Z,8.75
2023-02-11T06:25:20.410Z,8.40
2023-02-11T06:27:47.232Z,8.32
2023-02-11T06:30:14.628Z,9.32
2023-02-11T06:32:44.936Z,9.07
2023-02-11T06:35:13.697Z,10.23
2023-02-11T06:37:41.628Z,10.35
2023-02-11T06:40:09.497Z,8.80
2023-02-11T06:42:38.730Z,9.75
2023-02-11T06:45:09.611Z,9.50
2023-02-11T06:47:37.387Z,10.00
2023-02-11T06:50:04.675Z,10.48
2023-02-11T06:52:31.520Z,10.48
2023-02-11T06:54:58.300Z,10.13
2023-02-11T06:57:25.123Z,11.20
2023-02-11T06:59:52.030Z,10.35
2023-02-11T07:02:20.896Z,11.43
2023-02-11T07:04:48.021Z,9.35
2023-02-11T07:07:15.027Z,9.48
2023-02-11T07:09:42.053Z,11.48
2023-02-11T07:12:12.432Z,11.30
2023-02-11T07:14:39.590Z,9.50
2023-02-11T07:17:06.452Z,10.32
2023-02-11T07:19:33.318Z,10.73
2023-02-11T07:22:00.244Z,9.55
2023-02-11T07:24:27.122Z,10.15
2023-02-11T07:26:54.333Z,10.73
2023-02-11T07:29:21.410Z,10.35
2023-02-11T07:31:48.401Z,11.80
2023-02-11T07:34:15.337Z,10.32
2023-02-11T07:36:43.791Z,11.35
2023-02-11T07:39:10.887Z,11.45
2023-02-11T07:41:38.643Z,9.48
2023-02-11T07:44:05.720Z,11.43
2023-02-11T07:46:32.849Z,10.38
2023-02-11T07:49:00.136Z,9.75
2023-02-11T07:51:28.854Z,10.07
2023-02-11T07:53:57.272Z,10.63
2023-02-11T07:56:24.685Z,9.13
2023-02-11T07:58:51.949Z,10.98
2023-02-11T08:01:26.046Z,10.70
2023-02-11T08:03:53.796Z,10.38
2023-02-11T08:06:22.301Z,10.98
2023-02-11T08:08:49.610Z,10.48
2023-02-11T08:11:22.221Z,10.15
2023-02-11T08:13:49.072Z,9.10
2023-02-11T08:16:22.797Z,9.48
2023-02-11T08:18:50.171Z,10.35
2023-02-11T08:21:17.284Z,10.10
2023-02-11T08:23:45.337Z,9.10
2023-02-11T08:26:15.123Z,9.30
2023-02-11T08:28:44.001Z,11.20
2023-02-11T08:31:17.150Z,10.00
2023-02-11T08:33:44.748Z,11.07
2023-02-11T08:36:16.745Z,10.70
2023-02-11T08:38:44.318Z,9.18
2023-02-11T08:41:11.818Z,11.00
2023-02-11T08:43:41.831Z,9.52
2023-02-11T08:46:12.173Z,8.18
2023-02-11T08:48:39.003Z,10.02
2023-02-11T08:51:11.562Z,9.27
2023-02-11T08:53:38.479Z,10.27
2023-02-11T08:56:06.400Z,9.98
2023-02-11T08:58:33.401Z,9.85
2023-02-11T09:01:00.421Z,10.20
2023-02-11T09:03:27.400Z,9.70
2023-02-11T09:05:55.160Z,8.75
2023-02-11T09:08:22.086Z,9.45
2023-02-11T09:10:49.482Z,8.27
2023-02-11T09:13:17.009Z,9.23
2023-02-11T09:15:46.907Z,8.55
2023-02-11T09:18:14.195Z,8.75
2023-02-11T09:20:41.606Z,8.75
2023-02-11T09:23:09.722Z,8.50
2023-02-11T09:25:40.511Z,8.65
2023-02-11T09:28:08.543Z,8.73
2023-02-11T09:30:38.156Z,9.43
2023-02-11T09:33:05.174Z,8.18
2023-02-11T09:35:33.280Z,7.68
2023-02-11T09:38:00.208Z,7.75
2023-02-11T09:40:27.106Z,8.13
2023-02-11T09:43:06.694Z,8.70
2023-02-11T09:45:33.633Z,8.73
2023-02-11T09:48:14.133Z,6.72
2023-02-11T09:50:44.763Z,8.40
2023-02-11T09:53:20.537Z,8.90
2023-02-11T09:55:55.637Z,6.93
2023-02-11T09:58:39.542Z,7.30
2023-02-11T10:01:16.452Z,6.40
2023-02-11T10:03:46.641Z,8.00
2023-02-11T10:06:34.529Z,6.68
2023-02-11T10:09:21.989Z,6.68
2023-02-11T10:12:17.872Z,7.25
2023-02-11T10:15:29.681Z,7.40
2023-02-11T10:18:13.517Z,7.00
2023-02-11T10:20:46.652Z,6.28
2023-02-11T10:23:15.578Z,6.82
2023-02-11T10:25:50.710Z,6.20
2023-02-11T10:28:21.097Z,7.25
2023-02-11T10:31:24.696Z,6.05
2023-02-11T10:34:12.321Z,6.22
2023-02-11T10:36:42.668Z,6.35
2023-02-11T10:39:20.742Z,6.07
2023-02-11T10:41:59.255Z,6.32
2023-02-11T10:44:33.909Z,6.28
2023-02-11T10:47:23.840Z,5.43
2023-02-11T10:49:50.700Z,5.70
2023-02-11T10:52:30.511Z,4.82
2023-02-11T10:54:57.814Z,5.85
2023-02-11T10:57:30.149Z,6.25
2023-02-11T11:00:21.462Z,6.10
2023-02-11T11:02:58.416Z,5.53
2023-02-11T11:05:50.442Z,4.65
2023-02-11T11:08:18.392Z,5.47
2023-02-11T11:11:03.808Z,4.35
2023-02-11T11:13:33.884Z,3.67
2023-02-11T11:16:13.020Z,5.47
2023-02-11T11:18:42.269Z,5.30
2023-02-11T11:21:20.413Z,5.13
2023-02-11T11:23:59.330Z,5.18
2023-02-11T11:26:29.585Z,4.22
2023-02-11T11:28:58.509Z,3.70
2023-02-11T11:31:31.831Z,3.97
2023-02-11T11:34:00.989Z,5.03
2023-02-11T11:36:38.104Z,4.50
2023-02-11T11:39:19.742Z,4.55
2023-02-11T11:41:57.901Z,4.05
2023-02-11T11:44:29.463Z,3.63
2023-02-11T11:47:12.223Z,4.80
2023-02-11T11:50:00.802Z,3.63
2023-02-11T11:52:41.518Z,4.45
2023-02-11T11:55:34.518Z,3.40
2023-02-11T11:58:01.629Z,3.72
2023-02-11T12:00:32.729Z,4.13
2023-02-11T12:03:27.474Z,3.28
2023-02-11T12:05:54.255Z,3.38
2023-02-11T12:08:26.735Z,3.13
2023-02-11T12:10:59.458Z,3.90
2023-02-11T12:13:43.020Z,2.92
2023-02-11T12:16:26.852Z,4.05
2023-02-11T12:19:24.568Z,3.13
2023-02-11T12:21:59.760Z,3.45
2023-02-11T12:24:38.578Z,3.03
2023-02-11T12:27:43.039Z,2.80
2023-02-11T12:30:26.054Z,3.63
2023-02-11T12:33:26.826Z,3.17
2023-02-11T12:36:00.857Z,3.40
2023-02-11T12:38:42.996Z,3.00
2023-02-11T12:42:00.253Z,3.00
2023-02-11T12:44:55.882Z,2.03
2023-02-11T12:48:00.450Z,2.10
2023-02-11T12:51:01.509Z,2.92
2023-02-11T12:53:34.140Z,3.05
2023-02-11T12:56:06.527Z,2.42
2023-02-11T12:58:44.967Z,2.13
2023-02-11T13:01:44.863Z,2.58
2023-02-11T13:04:33.418Z,2.63
2023-02-11T13:07:06.355Z,2.78
2023-02-11T13:09:45.585Z,2.80
2023-02-11T13:12:33.299Z,2.13
2023-02-11T13:15:06.550Z,2.85
2023-02-11T13:18:13.195Z,2.90
2023-02-11T13:21:01.547Z,3.50
2023-02-11T13:23:49.810Z,2.28
2023-02-11T13:26:39.699Z,2.50
2023-02-11T13:29:21.594Z,1.92
2023-02-11T13:31:56.740Z,2.33
2023-02-11T13:34:46.733Z,2.03
2023-02-11T13:37:29.791Z,2.22
2023-02-11T13:40:19.399Z,2.78
2023-02-11T13:43:07.453Z,2.38
2023-02-11T13:45:40.555Z,2.60
2023-02-11T13:48:17.615Z,2.10
2023-02-11T13:50:51.191Z,2.03
2023-02-11T13:53:19.118Z,2.42
2023-02-11T13:55:49.751Z,2.58
2023-02-11T13:58:28.012Z,2.25
2023-02-11T14:00:55.529Z,2.08
2023-02-11T14:03:47.486Z,2.88
2023-02-11T14:06:37.410Z,3.60
2023-02-11T14:09:10.602Z,4.28
2023-02-11T14:11:43.409Z,2.72
2023-02-11T14:14:24.173Z,3.55
2023-02-11T14:17:00.333Z,6.25
2023-02-11T14:19:48.959Z,5.95
2023-02-11T14:22:17.732Z,6.35
2023-02-11T14:24:49.132Z,4.90
2023-02-11T14:27:29.536Z,3.55
2023-02-11T14:30:15.071Z,4.20
2023-02-11T14:33:03.176Z,3.50
2023-02-11T14:36:11.499Z,4.68
2023-02-11T14:38:48.265Z,5.00
2023-02-11T14:41:22.994Z,4.85
2023-02-11T14:44:15.261Z,3.83
2023-02-11T14:46:54.980Z,5.38
2023-02-11T14:49:32.808Z,5.05
2023-02-11T14:52:13.803Z,3.13
2023-02-11T14:54:43.302Z,2.33
2023-02-11T14:57:16.032Z,1.60
2023-02-11T14:59:59.237Z,1.20
2023-02-11T15:02:32.942Z,1.08
2023-02-11T15:05:19.760Z,1.70
2023-02-11T15:07:52.904Z,0.98
2023-02-11T15:10:32.093Z,1.17
2023-02-11T15:13:00.815Z,0.80
2023-02-11T15:15:29.209Z,1.25
2023-02-11T15:18:00.565Z,1.33
2023-02-11T15:20:29.755Z,1.52
2023-02-11T15:23:07.400Z,1.50
2023-02-11T15:25:35.939Z,1.83
2023-02-11T15:28:20.939Z,1.13
2023-02-11T15:30:56.107Z,1.00
2023-02-11T15:33:25.375Z,1.48
2023-02-11T15:35:52.284Z,1.10
2023-02-11T15:38:19.371Z,1.00
2023-02-11T15:40:58.661Z,1.13
2023-02-11T15:43:39.925Z,1.50
2023-02-11T15:46:07.074Z,1.85
2023-02-11T15:48:38.641Z,0.90
2023-02-11T15:51:22.840Z,1.20
2023-02-11T15:53:56.681Z,1.50
2023-02-11T15:56:26.666Z,1.10
2023-02-11T15:58:56.922Z,1.05
2023-02-11T16:01:34.846Z,0.82
2023-02-11T16:04:04.039Z,1.10
2023-02-11T16:06:42.022Z,0.85
2023-02-11T16:09:10.280Z,1.35
2023-02-11T16:11:55.563Z,1.20
2023-02-11T16:14:37.240Z,1.45
2023-02-11T16:17:12.485Z,0.95
2023-02-11T16:19:50.798Z,0.90
2023-02-11T16:22:30.281Z,1.73
2023-02-11T16:24:59.379Z,0.93
2023-02-11T16:27:30.609Z,1.40
2023-02-11T16:29:58.366Z,0.80
2023-02-11T16:32:27.918Z,1.63
2023-02-11T16:34:58.986Z,0.77
2023-02-11T16:37:26.461Z,0.80
2023-02-11T16:39:58.173Z,0.90
2023-02-11T16:42:25.532Z,1.10
2023-02-11T16:44:52.419Z,1.10
2023-02-11T16:47:28.431Z,1.48
2023-02-11T16:49:59.354Z,0.88
2023-02-11T16:52:26.512Z,1.65
2023-02-11T16:54:53.727Z,1.42
2023-02-11T16:57:23.739Z,2.03
2023-02-11T16:59:51.339Z,1.50
2023-02-11T17:02:24.217Z,1.58
2023-02-11T17:04:53.822Z,1.50
2023-02-11T17:07:21.017Z,6.43
2023-02-11T17:09:47.810Z,2.75
2023-02-11T17:12:14.653Z,3.85
2023-02-11T17:14:41.578Z,3.38
2023-02-11T17:17:10.281Z,2.55
2023-02-11T17:19:37.498Z,1.90
2023-02-11T17:22:05.044Z,1.65
2023-02-11T17:24:32.503Z,1.35
2023-02-11T17:26:59.654Z,2.15
2023-02-11T17:29:27.085Z,1.30
2023-02-11T17:31:54.780Z,1.77
2023-02-11T17:34:22.659Z,2.28
2023-02-11T17:36:49.608Z,1.73
2023-02-11T17:39:16.514Z,2.47
2023-02-11T17:41:43.421Z,1.50
2023-02-11T17:44:12.357Z,1.52
2023-02-11T17:46:39.416Z,1.50
2023-02-11T17:49:06.774Z,1.15
2023-02-11T17:51:35.972Z,1.25
2023-02-11T17:54:06.211Z,1.15
2023-02-11T17:56:35.632Z,2.03
2023-02-11T17:59:02.965Z,1.92
2023-02-11T18:01:32.902Z,1.33
2023-02-11T18:03:59.942Z,1.42
2023-02-11T18:06:29.095Z,1.35
2023-02-11T18:08:59.611Z,1.10
2023-02-11T18:11:27.936Z,1.23
2023-02-11T18:13:54.973Z,1.35
2023-02-11T18:16:24.048Z,1.92
2023-02-11T18:18:51.387Z,1.73
2023-02-11T18:21:20.730Z,1.33
2023-02-11T18:23:49.168Z,1.30
2023-02-11T18:26:18.782Z,1.77
2023-02-11T18:28:46.211Z,1.33
2023-02-11T18:31:14.152Z,2.72
2023-02-11T18:33:42.152Z,1.23
2023-02-11T18:36:14.227Z,1.73
2023-02-11T18:38:42.064Z,1.77
2023-02-11T18:41:09.192Z,1.63
2023-02-11T18:43:36.482Z,1.75
2023-02-11T18:46:08.346Z,1.38
2023-02-11T18:48:35.376Z,2.05
2023-02-11T18:51:02.314Z,1.30
2023-02-11T18:53:29.260Z,1.20
2023-02-11T18:55:56.061Z,1.85
2023-02-11T18:58:23.364Z,1.52
2023-02-11T19:00:50.648Z,3.05
2023-02-11T19:03:17.806Z,1.40
2023-02-11T19:05:46.757Z,1.98
2023-02-11T19:08:14.158Z,1.75
2023-02-11T19:10:45.241Z,1.70
2023-02-11T19:13:13.355Z,1.77
2023-02-11T19:15:45.375Z,1.13
2023-02-11T19:18:15.163Z,1.45
2023-02-11T19:20:43.474Z,1.20
2023-02-11T19:23:10.921Z,1.55
2023-02-11T19:25:44.617Z,1.23
2023-02-11T19:28:11.808Z,1.40
2023-02-11T19:30:39.065Z,1.50
2023-02-11T19:33:07.767Z,1.60
2023-02-11T19:35:36.660Z,1.48
2023-02-11T19:38:04.980Z,1.38
2023-02-11T19:40:32.941Z,1.38
2023-02-11T19:43:00.152Z,1.10
2023-02-11T19:45:27.084Z,1.98
2023-02-11T19:47:57.465Z,1.10
2023-02-11T19:50:24.856Z,1.70
2023-02-11T19:52:51.868Z,1.30
2023-02-11T19:55:19.049Z,1.00
2023-02-11T19:57:46.348Z,1.38
2023-02-11T20:00:13.762Z,1.08
2023-02-11T20:02:40.743Z,2.00
2023-02-11T20:05:07.944Z,1.65
2023-02-11T20:07:35.133Z,1.77
2023-02-11T20:10:02.342Z,1.30
2023-02-11T20:12:29.514Z,1.00
2023-02-11T20:14:56.523Z,1.95
2023-02-11T20:17:23.536Z,1.35
2023-02-11T20:19:50.470Z,1.17
2023-02-11T20:22:17.400Z,0.68
2023-02-11T20:24:44.401Z,2.05
2023-02-11T20:27:11.704Z,0.93
2023-02-11T20:29:39.567Z,1.00
2023-02-11T20:32:07.476Z,1.52
2023-02-11T20:34:35.171Z,1.70
2023-02-11T20:37:04.097Z,2.03
2023-02-11T20:39:31.027Z,1.83
2023-02-11T20:41:58.245Z,1.40
2023-02-11T20:44:25.183Z,1.77
2023-02-11T20:46:54.149Z,1.45
2023-02-11T20:49:24.017Z,1.90
2023-02-11T20:51:52.548Z,2.53
2023-02-11T20:54:20.994Z,1.92
2023-02-11T20:56:53.839Z,1.52
2023-02-11T20:59:21.169Z,2.00
2023-02-11T21:01:50.808Z,1.42
2023-02-11T21:04:21.214Z,1.70
2023-02-11T21:06:54.191Z,2.17
2023-02-11T21:09:24.375Z,2.42
2023-02-11T21:11:52.819Z,1.92
2023-02-11T21:14:22.213Z,2.33
2023-02-11T21:16:51.206Z,1.77
2023-02-11T21:19:18.755Z,2.30
2023-02-11T21:21:45.729Z,1.73
2023-02-11T21:24:12.951Z,3.25
2023-02-11T21:26:40.190Z,2.05
2023-02-11T21:29:08.456Z,2.47
2023-02-11T21:31:36.606Z,1.85
2023-02-11T21:34:04.046Z,3.17
2023-02-11T21:36:31.208Z,2.33
2023-02-11T21:38:58.170Z,2.10
2023-02-11T21:41:25.154Z,2.45
2023-02-11T21:43:52.449Z,2.58
2023-02-11T21:46:20.481Z,2.95
2023-02-11T21:48:48.203Z,2.15
2023-02-11T21:51:17.870Z,2.72
2023-02-11T21:53:45.356Z,2.15
2023-02-11T21:56:15.281Z,2.03
2023-02-11T21:58:42.582Z,2.72
2023-02-11T22:01:19.983Z,1.67
2023-02-11T22:03:47.146Z,2.20
2023-02-11T22:06:17.136Z,3.05
2023-02-11T22:08:44.033Z,2.38
2023-02-11T22:11:12.609Z,3.53
2023-02-11T22:13:40.116Z,1.95
2023-02-11T22:16:11.087Z,2.58
2023-02-11T22:18:38.635Z,2.80
2023-02-11T22:21:07.570Z,2.90
2023-02-11T22:23:35.240Z,3.00
2023-02-11T22:26:10.875Z,2.53
2023-02-11T22:28:40.101Z,2.88
2023-02-11T22:31:11.368Z,2.78
2023-02-11T22:33:38.351Z,2.78
2023-02-11T22:36:08.346Z,2.65
2023-02-11T22:38:36.327Z,3.20
2023-02-11T22:41:09.426Z,3.45
2023-02-11T22:43:37.200Z,3.53
2023-02-11T22:46:05.969Z,3.10
2023-02-11T22:48:34.317Z,2.83
2023-02-11T22:51:09.625Z,3.58
2023-02-11T22:53:36.493Z,3.45
2023-02-11T22:56:09.773Z,2.85
2023-02-11T22:58:37.041Z,3.70
2023-02-11T23:01:05.597Z,4.05
2023-02-11T23:03:34.102Z,5.38
2023-02-11T23:06:01.361Z,3.58
2023-02-11T23:08:29.837Z,3.83
2023-02-11T23:10:57.194Z,4.90
2023-02-11T23:13:24.092Z,3.95
2023-02-11T23:15:50.934Z,4.32
2023-02-11T23:18:17.737Z,3.05
2023-02-11T23:20:45.190Z,3.75
2023-02-11T23:23:12.014Z,3.80
2023-02-11T23:25:45.111Z,3.40
2023-02-11T23:28:12.955Z,3.65
2023-02-11T23:30:41.298Z,3.67
2023-02-11T23:33:08.191Z,3.70
2023-02-11T23:35:35.431Z,3.22
2023-02-11T23:38:02.344Z,3.60
2023-02-11T23:40:29.175Z,3.90
2023-02-11T23:42:56.011Z,4.00
2023-02-11T23:45:22.921Z,3.03
2023-02-11T23:47:50.073Z,3.13
2023-02-11T23:50:17.290Z,3.25
2023-02-11T23:52:44.502Z,3.67
2023-02-11T23:55:11.543Z,3.78
2023-02-11T23:57:38.448Z,4.85
